sensor_id;sensor_type;location;lat;lon;timestamp;P1;durP1;ratioP1;P2;durP2;ratioP2
74371;SDS011;62885;51.374;6.170;2022-08-21T00:00:06;7.57;;;3.53;;
74371;SDS011;62885;51.374;6.170;2022-08-21T00:02:35;8.45;;;3.90;;
74371;SDS011;62885;51.374;6.170;2022-08-21T00:05:01;9.75;;;3.47;;
74371;SDS011;62885;51.374;6.170;2022-08-21T00:07:27;11.15;;;3.40;;
74371;SDS011;62885;51.374;6.170;2022-08-21T00:09:53;8.30;;;3.72;;
74371;SDS011;62885;51.374;6.170;2022-08-21T00:12:19;8.30;;;3.60;;
74371;SDS011;62885;51.374;6.170;2022-08-21T00:14:45;7.07;;;3.60;;
74371;SDS011;62885;51.374;6.170;2022-08-21T00:17:11;8.80;;;4.72;;
74371;SDS011;62885;51.374;6.170;2022-08-21T00:19:36;14.20;;;7.65;;
74371;SDS011;62885;51.374;6.170;2022-08-21T00:22:02;10.73;;;6.47;;
74371;SDS011;62885;51.374;6.170;2022-08-21T00:24:27;9.27;;;4.00;;
74371;SDS011;62885;51.374;6.170;2022-08-21T00:26:53;8.80;;;3.83;;
74371;SDS011;62885;51.374;6.170;2022-08-21T00:29:18;6.55;;;3.22;;
74371;SDS011;62885;51.374;6.170;2022-08-21T00:31:44;9.55;;;3.22;;
74371;SDS011;62885;51.374;6.170;2022-08-21T00:34:10;6.32;;;3.38;;
74371;SDS011;62885;51.374;6.170;2022-08-21T00:36:36;8.73;;;3.92;;
74371;SDS011;62885;51.374;6.170;2022-08-21T00:39:02;6.90;;;3.53;;
74371;SDS011;62885;51.374;6.170;2022-08-21T00:41:30;10.48;;;4.22;;
74371;SDS011;62885;51.374;6.170;2022-08-21T00:43:55;7.35;;;3.47;;
74371;SDS011;62885;51.374;6.170;2022-08-21T00:46:21;9.73;;;3.97;;
74371;SDS011;62885;51.374;6.170;2022-08-21T00:48:46;6.88;;;3.38;;
74371;SDS011;62885;51.374;6.170;2022-08-21T00:51:17;10.20;;;4.45;;
74371;SDS011;62885;51.374;6.170;2022-08-21T00:53:51;7.88;;;3.67;;
74371;SDS011;62885;51.374;6.170;2022-08-21T00:56:19;10.50;;;3.78;;
74371;SDS011;62885;51.374;6.170;2022-08-21T00:58:46;10.35;;;3.97;;
74371;SDS011;62885;51.374;6.170;2022-08-21T01:01:13;6.85;;;3.75;;
74371;SDS011;62885;51.374;6.170;2022-08-21T01:03:38;6.60;;;3.45;;
74371;SDS011;62885;51.374;6.170;2022-08-21T01:06:05;16.45;;;9.77;;
74371;SDS011;62885;51.374;6.170;2022-08-21T01:08:31;11.07;;;5.80;;
74371;SDS011;62885;51.374;6.170;2022-08-21T01:10:57;9.35;;;4.05;;
74371;SDS011;62885;51.374;6.170;2022-08-21T01:13:24;7.25;;;4.15;;
74371;SDS011;62885;51.374;6.170;2022-08-21T01:15:51;8.57;;;3.80;;
74371;SDS011;62885;51.374;6.170;2022-08-21T01:18:19;10.45;;;4.45;;
74371;SDS011;62885;51.374;6.170;2022-08-21T01:23:39;7.40;;;4.63;;
74371;SDS011;62885;51.374;6.170;2022-08-21T01:26:08;8.48;;;5.10;;
74371;SDS011;62885;51.374;6.170;2022-08-21T01:28:38;8.07;;;4.70;;
74371;SDS011;62885;51.374;6.170;2022-08-21T01:31:08;10.32;;;5.03;;
74371;SDS011;62885;51.374;6.170;2022-08-21T01:33:37;8.20;;;4.88;;
74371;SDS011;62885;51.374;6.170;2022-08-21T01:36:02;8.18;;;4.18;;
74371;SDS011;62885;51.374;6.170;2022-08-21T01:38:28;9.57;;;4.80;;
74371;SDS011;62885;51.374;6.170;2022-08-21T01:40:57;8.43;;;4.53;;
74371;SDS011;62885;51.374;6.170;2022-08-21T01:43:22;18.80;;;11.68;;
74371;SDS011;62885;51.374;6.170;2022-08-21T01:45:48;17.50;;;11.43;;
74371;SDS011;62885;51.374;6.170;2022-08-21T01:48:13;11.77;;;6.25;;
74371;SDS011;62885;51.374;6.170;2022-08-21T01:50:39;8.93;;;4.50;;
74371;SDS011;62885;51.374;6.170;2022-08-21T01:53:04;9.90;;;4.65;;
74371;SDS011;62885;51.374;6.170;2022-08-21T01:55:30;8.68;;;4.45;;
74371;SDS011;62885;51.374;6.170;2022-08-21T01:57:56;8.98;;;4.70;;
74371;SDS011;62885;51.374;6.170;2022-08-21T02:00:22;9.13;;;4.80;;
74371;SDS011;62885;51.374;6.170;2022-08-21T02:02:48;11.52;;;4.85;;
74371;SDS011;62885;51.374;6.170;2022-08-21T02:05:14;10.48;;;4.57;;
74371;SDS011;62885;51.374;6.170;2022-08-21T02:07:42;10.13;;;5.18;;
74371;SDS011;62885;51.374;6.170;2022-08-21T02:10:10;7.88;;;4.75;;
74371;SDS011;62885;51.374;6.170;2022-08-21T02:12:38;8.80;;;4.47;;
74371;SDS011;62885;51.374;6.170;2022-08-21T02:15:04;10.48;;;4.32;;
74371;SDS011;62885;51.374;6.170;2022-08-21T02:17:53;8.02;;;4.18;;
74371;SDS011;62885;51.374;6.170;2022-08-21T02:20:25;7.03;;;3.90;;
74371;SDS011;62885;51.374;6.170;2022-08-21T02:22:53;8.07;;;4.60;;
74371;SDS011;62885;51.374;6.170;2022-08-21T02:25:19;8.73;;;4.50;;
74371;SDS011;62885;51.374;6.170;2022-08-21T02:27:48;10.63;;;4.72;;
74371;SDS011;62885;51.374;6.170;2022-08-21T02:30:15;10.10;;;4.75;;
74371;SDS011;62885;51.374;6.170;2022-08-21T02:32:43;9.70;;;4.38;;
74371;SDS011;62885;51.374;6.170;2022-08-21T02:35:09;9.27;;;4.55;;
74371;SDS011;62885;51.374;6.170;2022-08-21T02:37:49;7.97;;;4.43;;
74371;SDS011;62885;51.374;6.170;2022-08-21T02:40:18;8.35;;;4.07;;
74371;SDS011;62885;51.374;6.170;2022-08-21T02:42:45;7.63;;;4.57;;
74371;SDS011;62885;51.374;6.170;2022-08-21T02:45:11;8.98;;;4.43;;
74371;SDS011;62885;51.374;6.170;2022-08-21T02:47:46;11.80;;;5.30;;
74371;SDS011;62885;51.374;6.170;2022-08-21T02:50:17;8.40;;;4.13;;
74371;SDS011;62885;51.374;6.170;2022-08-21T02:52:45;8.55;;;4.28;;
74371;SDS011;62885;51.374;6.170;2022-08-21T02:55:10;8.70;;;5.03;;
74371;SDS011;62885;51.374;6.170;2022-08-21T02:57:36;8.52;;;5.00;;
74371;SDS011;62885;51.374;6.170;2022-08-21T03:00:03;7.95;;;4.47;;
74371;SDS011;62885;51.374;6.170;2022-08-21T03:02:30;10.93;;;5.25;;
74371;SDS011;62885;51.374;6.170;2022-08-21T03:04:56;11.38;;;5.00;;
74371;SDS011;62885;51.374;6.170;2022-08-21T03:07:21;7.88;;;4.82;;
74371;SDS011;62885;51.374;6.170;2022-08-21T03:09:47;10.40;;;4.57;;
74371;SDS011;62885;51.374;6.170;2022-08-21T03:12:12;8.65;;;4.95;;
74371;SDS011;62885;51.374;6.170;2022-08-21T03:14:38;9.07;;;5.10;;
74371;SDS011;62885;51.374;6.170;2022-08-21T03:17:03;11.18;;;5.30;;
74371;SDS011;62885;51.374;6.170;2022-08-21T03:19:29;9.23;;;5.15;;
74371;SDS011;62885;51.374;6.170;2022-08-21T03:21:54;8.68;;;4.85;;
74371;SDS011;62885;51.374;6.170;2022-08-21T03:24:20;10.10;;;5.13;;
74371;SDS011;62885;51.374;6.170;2022-08-21T03:26:45;9.25;;;5.25;;
74371;SDS011;62885;51.374;6.170;2022-08-21T03:29:10;9.13;;;4.85;;
74371;SDS011;62885;51.374;6.170;2022-08-21T03:31:36;7.55;;;4.57;;
74371;SDS011;62885;51.374;6.170;2022-08-21T03:34:01;9.13;;;5.45;;
74371;SDS011;62885;51.374;6.170;2022-08-21T03:36:26;10.98;;;5.50;;
74371;SDS011;62885;51.374;6.170;2022-08-21T03:38:52;10.13;;;5.43;;
74371;SDS011;62885;51.374;6.170;2022-08-21T03:41:17;9.10;;;5.03;;
74371;SDS011;62885;51.374;6.170;2022-08-21T03:43:42;10.77;;;5.25;;
74371;SDS011;62885;51.374;6.170;2022-08-21T03:46:08;9.73;;;5.72;;
74371;SDS011;62885;51.374;6.170;2022-08-21T03:48:34;11.57;;;5.90;;
74371;SDS011;62885;51.374;6.170;2022-08-21T03:51:00;10.02;;;5.43;;
74371;SDS011;62885;51.374;6.170;2022-08-21T03:53:27;10.73;;;5.65;;
74371;SDS011;62885;51.374;6.170;2022-08-21T03:55:52;10.50;;;5.90;;
74371;SDS011;62885;51.374;6.170;2022-08-21T03:58:20;10.48;;;6.50;;
74371;SDS011;62885;51.374;6.170;2022-08-21T04:00:48;10.35;;;5.68;;
74371;SDS011;62885;51.374;6.170;2022-08-21T04:03:16;10.48;;;5.78;;
74371;SDS011;62885;51.374;6.170;2022-08-21T04:05:42;9.90;;;6.40;;
74371;SDS011;62885;51.374;6.170;2022-08-21T04:08:08;10.10;;;5.97;;
74371;SDS011;62885;51.374;6.170;2022-08-21T04:10:34;12.00;;;6.07;;
74371;SDS011;62885;51.374;6.170;2022-08-21T04:13:01;10.90;;;6.80;;
74371;SDS011;62885;51.374;6.170;2022-08-21T04:15:27;10.10;;;5.65;;
74371;SDS011;62885;51.374;6.170;2022-08-21T04:17:52;8.57;;;6.10;;
74371;SDS011;62885;51.374;6.170;2022-08-21T04:20:18;11.27;;;6.10;;
74371;SDS011;62885;51.374;6.170;2022-08-21T04:22:46;11.40;;;6.03;;
74371;SDS011;62885;51.374;6.170;2022-08-21T04:25:13;13.55;;;6.18;;
74371;SDS011;62885;51.374;6.170;2022-08-21T04:27:39;10.43;;;5.47;;
74371;SDS011;62885;51.374;6.170;2022-08-21T04:30:05;10.68;;;5.97;;
74371;SDS011;62885;51.374;6.170;2022-08-21T04:32:31;10.82;;;6.60;;
74371;SDS011;62885;51.374;6.170;2022-08-21T04:34:58;10.27;;;6.32;;
74371;SDS011;62885;51.374;6.170;2022-08-21T04:37:29;11.50;;;6.30;;
74371;SDS011;62885;51.374;6.170;2022-08-21T04:39:54;10.98;;;7.25;;
74371;SDS011;62885;51.374;6.170;2022-08-21T04:42:22;10.18;;;6.80;;
74371;SDS011;62885;51.374;6.170;2022-08-21T04:44:49;12.07;;;6.57;;
74371;SDS011;62885;51.374;6.170;2022-08-21T04:47:15;13.00;;;5.35;;
74371;SDS011;62885;51.374;6.170;2022-08-21T04:49:42;12.90;;;6.90;;
74371;SDS011;62885;51.374;6.170;2022-08-21T04:52:08;10.95;;;5.97;;
74371;SDS011;62885;51.374;6.170;2022-08-21T04:54:33;8.60;;;5.40;;
74371;SDS011;62885;51.374;6.170;2022-08-21T04:56:59;9.80;;;5.78;;
74371;SDS011;62885;51.374;6.170;2022-08-21T04:59:32;8.93;;;5.47;;
74371;SDS011;62885;51.374;6.170;2022-08-21T05:02:01;10.63;;;5.40;;
74371;SDS011;62885;51.374;6.170;2022-08-21T05:04:28;10.77;;;6.07;;
74371;SDS011;62885;51.374;6.170;2022-08-21T05:06:57;10.15;;;5.28;;
74371;SDS011;62885;51.374;6.170;2022-08-21T05:09:26;11.40;;;5.88;;
74371;SDS011;62885;51.374;6.170;2022-08-21T05:11:53;8.05;;;5.35;;
74371;SDS011;62885;51.374;6.170;2022-08-21T05:14:19;12.07;;;5.60;;
74371;SDS011;62885;51.374;6.170;2022-08-21T05:16:45;9.70;;;5.00;;
74371;SDS011;62885;51.374;6.170;2022-08-21T05:19:13;11.40;;;5.40;;
74371;SDS011;62885;51.374;6.170;2022-08-21T05:21:40;9.35;;;4.70;;
74371;SDS011;62885;51.374;6.170;2022-08-21T05:24:08;10.23;;;4.43;;
74371;SDS011;62885;51.374;6.170;2022-08-21T05:26:34;10.20;;;4.35;;
74371;SDS011;62885;51.374;6.170;2022-08-21T05:29:01;8.30;;;4.63;;
74371;SDS011;62885;51.374;6.170;2022-08-21T05:31:27;10.38;;;4.10;;
74371;SDS011;62885;51.374;6.170;2022-08-21T05:33:52;7.25;;;4.18;;
74371;SDS011;62885;51.374;6.170;2022-08-21T05:36:18;7.53;;;3.88;;
74371;SDS011;62885;51.374;6.170;2022-08-21T05:38:44;7.90;;;4.15;;
74371;SDS011;62885;51.374;6.170;2022-08-21T05:41:09;11.65;;;3.80;;
74371;SDS011;62885;51.374;6.170;2022-08-21T05:43:35;8.55;;;3.97;;
74371;SDS011;62885;51.374;6.170;2022-08-21T05:46:02;9.45;;;3.97;;
74371;SDS011;62885;51.374;6.170;2022-08-21T05:48:29;7.85;;;3.50;;
74371;SDS011;62885;51.374;6.170;2022-08-21T05:50:55;11.15;;;4.18;;
74371;SDS011;62885;51.374;6.170;2022-08-21T05:53:22;7.15;;;3.53;;
74371;SDS011;62885;51.374;6.170;2022-08-21T05:55:48;12.52;;;4.18;;
74371;SDS011;62885;51.374;6.170;2022-08-21T05:58:16;9.07;;;4.00;;
74371;SDS011;62885;51.374;6.170;2022-08-21T06:00:44;6.50;;;3.60;;
74371;SDS011;62885;51.374;6.170;2022-08-21T06:03:19;8.90;;;4.40;;
74371;SDS011;62885;51.374;6.170;2022-08-21T06:05:47;11.02;;;4.13;;
74371;SDS011;62885;51.374;6.170;2022-08-21T06:08:13;9.27;;;3.83;;
74371;SDS011;62885;51.374;6.170;2022-08-21T06:10:39;7.93;;;3.78;;
74371;SDS011;62885;51.374;6.170;2022-08-21T06:13:05;10.75;;;4.20;;
74371;SDS011;62885;51.374;6.170;2022-08-21T06:15:30;10.98;;;3.92;;
74371;SDS011;62885;51.374;6.170;2022-08-21T06:17:55;10.05;;;4.20;;
74371;SDS011;62885;51.374;6.170;2022-08-21T06:20:21;6.75;;;4.05;;
74371;SDS011;62885;51.374;6.170;2022-08-21T06:22:47;11.43;;;3.83;;
74371;SDS011;62885;51.374;6.170;2022-08-21T06:25:12;6.53;;;3.42;;
74371;SDS011;62885;51.374;6.170;2022-08-21T06:27:38;7.22;;;3.42;;
74371;SDS011;62885;51.374;6.170;2022-08-21T06:30:04;9.15;;;3.17;;
74371;SDS011;62885;51.374;6.170;2022-08-21T06:32:31;8.25;;;3.45;;
74371;SDS011;62885;51.374;6.170;2022-08-21T06:34:56;5.82;;;3.15;;
74371;SDS011;62885;51.374;6.170;2022-08-21T06:37:21;8.65;;;3.58;;
74371;SDS011;62885;51.374;6.170;2022-08-21T06:39:47;10.20;;;3.60;;
74371;SDS011;62885;51.374;6.170;2022-08-21T06:42:14;7.00;;;3.00;;
74371;SDS011;62885;51.374;6.170;2022-08-21T06:44:40;8.85;;;4.45;;
74371;SDS011;62885;51.374;6.170;2022-08-21T06:47:06;8.43;;;3.28;;
74371;SDS011;62885;51.374;6.170;2022-08-21T06:49:32;9.52;;;3.35;;
74371;SDS011;62885;51.374;6.170;2022-08-21T06:51:57;8.85;;;3.08;;
74371;SDS011;62885;51.374;6.170;2022-08-21T06:54:23;6.10;;;2.83;;
74371;SDS011;62885;51.374;6.170;2022-08-21T06:56:48;9.10;;;4.88;;
74371;SDS011;62885;51.374;6.170;2022-08-21T06:59:13;10.18;;;4.53;;
74371;SDS011;62885;51.374;6.170;2022-08-21T07:01:39;9.15;;;3.30;;
74371;SDS011;62885;51.374;6.170;2022-08-21T07:04:04;9.13;;;3.42;;
74371;SDS011;62885;51.374;6.170;2022-08-21T07:06:29;7.88;;;3.00;;
74371;SDS011;62885;51.374;6.170;2022-08-21T07:08:55;8.07;;;3.10;;
74371;SDS011;62885;51.374;6.170;2022-08-21T07:11:21;6.15;;;3.05;;
74371;SDS011;62885;51.374;6.170;2022-08-21T07:13:49;7.68;;;3.20;;
74371;SDS011;62885;51.374;6.170;2022-08-21T07:16:16;8.55;;;2.63;;
74371;SDS011;62885;51.374;6.170;2022-08-21T07:18:41;9.55;;;3.45;;
74371;SDS011;62885;51.374;6.170;2022-08-21T07:21:07;9.68;;;2.60;;
74371;SDS011;62885;51.374;6.170;2022-08-21T07:23:36;5.57;;;2.10;;
74371;SDS011;62885;51.374;6.170;2022-08-21T07:26:04;9.70;;;2.47;;
74371;SDS011;62885;51.374;6.170;2022-08-21T07:28:30;6.28;;;2.42;;
74371;SDS011;62885;51.374;6.170;2022-08-21T07:30:56;6.10;;;2.15;;
74371;SDS011;62885;51.374;6.170;2022-08-21T07:33:24;8.27;;;2.50;;
74371;SDS011;62885;51.374;6.170;2022-08-21T07:35:51;7.63;;;2.85;;
74371;SDS011;62885;51.374;6.170;2022-08-21T07:38:17;8.73;;;2.53;;
74371;SDS011;62885;51.374;6.170;2022-08-21T07:40:43;10.15;;;2.63;;
74371;SDS011;62885;51.374;6.170;2022-08-21T07:43:09;6.00;;;1.60;;
74371;SDS011;62885;51.374;6.170;2022-08-21T07:45:36;11.57;;;2.53;;
74371;SDS011;62885;51.374;6.170;2022-08-21T07:48:01;10.57;;;2.90;;
74371;SDS011;62885;51.374;6.170;2022-08-21T07:50:26;6.82;;;2.03;;
74371;SDS011;62885;51.374;6.170;2022-08-21T07:52:52;9.60;;;2.38;;
74371;SDS011;62885;51.374;6.170;2022-08-21T07:55:18;7.38;;;2.58;;
74371;SDS011;62885;51.374;6.170;2022-08-21T07:57:46;10.82;;;2.50;;
74371;SDS011;62885;51.374;6.170;2022-08-21T08:00:14;8.75;;;2.20;;
74371;SDS011;62885;51.374;6.170;2022-08-21T08:05:10;7.07;;;1.88;;
74371;SDS011;62885;51.374;6.170;2022-08-21T08:07:36;6.32;;;1.92;;
74371;SDS011;62885;51.374;6.170;2022-08-21T08:10:03;5.80;;;1.83;;
74371;SDS011;62885;51.374;6.170;2022-08-21T08:12:30;8.25;;;1.92;;
74371;SDS011;62885;51.374;6.170;2022-08-21T08:14:59;7.30;;;1.70;;
74371;SDS011;62885;51.374;6.170;2022-08-21T08:17:25;11.95;;;2.50;;
74371;SDS011;62885;51.374;6.170;2022-08-21T08:19:51;5.32;;;1.48;;
74371;SDS011;62885;51.374;6.170;2022-08-21T08:22:18;6.00;;;1.83;;
74371;SDS011;62885;51.374;6.170;2022-08-21T08:24:47;5.80;;;1.88;;
74371;SDS011;62885;51.374;6.170;2022-08-21T08:27:13;8.00;;;2.00;;
74371;SDS011;62885;51.374;6.170;2022-08-21T08:29:40;5.50;;;2.10;;
74371;SDS011;62885;51.374;6.170;2022-08-21T08:32:05;6.70;;;1.92;;
74371;SDS011;62885;51.374;6.170;2022-08-21T08:34:34;5.75;;;2.22;;
74371;SDS011;62885;51.374;6.170;2022-08-21T08:37:01;7.47;;;2.42;;
74371;SDS011;62885;51.374;6.170;2022-08-21T08:39:28;9.18;;;2.42;;
74371;SDS011;62885;51.374;6.170;2022-08-21T08:42:05;9.40;;;2.05;;
74371;SDS011;62885;51.374;6.170;2022-08-21T08:44:35;8.38;;;2.38;;
74371;SDS011;62885;51.374;6.170;2022-08-21T08:47:01;7.20;;;2.20;;
74371;SDS011;62885;51.374;6.170;2022-08-21T08:54:47;8.45;;;2.58;;
74371;SDS011;62885;51.374;6.170;2022-08-21T08:57:22;6.47;;;1.90;;
74371;SDS011;62885;51.374;6.170;2022-08-21T08:59:53;4.63;;;1.63;;
74371;SDS011;62885;51.374;6.170;2022-08-21T09:02:22;8.48;;;1.85;;
74371;SDS011;62885;51.374;6.170;2022-08-21T09:04:49;4.72;;;1.95;;
74371;SDS011;62885;51.374;6.170;2022-08-21T09:12:56;8.45;;;1.63;;
74371;SDS011;62885;51.374;6.170;2022-08-21T09:15:45;8.45;;;2.00;;
74371;SDS011;62885;51.374;6.170;2022-08-21T09:18:27;4.78;;;1.40;;
74371;SDS011;62885;51.374;6.170;2022-08-21T09:24:02;8.55;;;1.70;;
74371;SDS011;62885;51.374;6.170;2022-08-21T09:27:09;7.05;;;2.17;;
74371;SDS011;62885;51.374;6.170;2022-08-21T09:29:31;6.18;;;2.08;;
74371;SDS011;62885;51.374;6.170;2022-08-21T09:34:28;6.25;;;1.65;;
74371;SDS011;62885;51.374;6.170;2022-08-21T09:36:56;7.30;;;1.40;;
74371;SDS011;62885;51.374;6.170;2022-08-21T09:39:26;7.43;;;1.60;;
74371;SDS011;62885;51.374;6.170;2022-08-21T09:42:01;4.30;;;1.30;;
74371;SDS011;62885;51.374;6.170;2022-08-21T09:44:30;6.55;;;1.65;;
74371;SDS011;62885;51.374;6.170;2022-08-21T09:46:58;5.25;;;1.27;;
74371;SDS011;62885;51.374;6.170;2022-08-21T09:49:31;4.28;;;1.27;;
74371;SDS011;62885;51.374;6.170;2022-08-21T09:52:06;5.65;;;1.15;;
74371;SDS011;62885;51.374;6.170;2022-08-21T09:54:42;8.15;;;1.60;;
74371;SDS011;62885;51.374;6.170;2022-08-21T09:59:54;6.45;;;1.45;;
74371;SDS011;62885;51.374;6.170;2022-08-21T10:04:50;4.40;;;1.37;;
74371;SDS011;62885;51.374;6.170;2022-08-21T10:07:19;4.88;;;1.00;;
74371;SDS011;62885;51.374;6.170;2022-08-21T10:09:57;2.88;;;1.05;;
74371;SDS011;62885;51.374;6.170;2022-08-21T10:12:25;6.90;;;1.25;;
74371;SDS011;62885;51.374;6.170;2022-08-21T10:20:43;4.35;;;1.08;;
74371;SDS011;62885;51.374;6.170;2022-08-21T10:28:37;7.57;;;1.52;;
74371;SDS011;62885;51.374;6.170;2022-08-21T10:33:46;5.35;;;1.30;;
74371;SDS011;62885;51.374;6.170;2022-08-21T10:47:23;6.35;;;1.40;;
74371;SDS011;62885;51.374;6.170;2022-08-21T10:58:29;6.95;;;1.83;;
74371;SDS011;62885;51.374;6.170;2022-08-21T11:01:00;5.43;;;1.30;;
74371;SDS011;62885;51.374;6.170;2022-08-21T11:08:44;4.03;;;1.48;;
74371;SDS011;62885;51.374;6.170;2022-08-21T11:11:19;7.47;;;1.50;;
74371;SDS011;62885;51.374;6.170;2022-08-21T11:13:50;4.50;;;1.35;;
74371;SDS011;62885;51.374;6.170;2022-08-21T11:21:48;4.60;;;1.58;;
74371;SDS011;62885;51.374;6.170;2022-08-21T11:27:12;4.93;;;1.35;;
74371;SDS011;62885;51.374;6.170;2022-08-21T11:29:46;4.82;;;1.33;;
74371;SDS011;62885;51.374;6.170;2022-08-21T11:34:54;4.15;;;1.20;;
74371;SDS011;62885;51.374;6.170;2022-08-21T11:40:10;4.97;;;1.33;;
74371;SDS011;62885;51.374;6.170;2022-08-21T11:45:27;5.95;;;1.77;;
74371;SDS011;62885;51.374;6.170;2022-08-21T11:48:12;9.30;;;1.50;;
74371;SDS011;62885;51.374;6.170;2022-08-21T11:50:43;4.55;;;1.33;;
74371;SDS011;62885;51.374;6.170;2022-08-21T11:53:12;5.32;;;1.40;;
74371;SDS011;62885;51.374;6.170;2022-08-21T11:55:47;4.97;;;1.67;;
74371;SDS011;62885;51.374;6.170;2022-08-21T12:00:49;4.68;;;1.27;;
74371;SDS011;62885;51.374;6.170;2022-08-21T12:06:12;6.38;;;1.48;;
74371;SDS011;62885;51.374;6.170;2022-08-21T12:08:43;6.40;;;1.40;;
74371;SDS011;62885;51.374;6.170;2022-08-21T12:13:56;9.20;;;1.48;;
74371;SDS011;62885;51.374;6.170;2022-08-21T12:16:29;3.40;;;1.13;;
74371;SDS011;62885;51.374;6.170;2022-08-21T12:21:29;4.38;;;1.20;;
74371;SDS011;62885;51.374;6.170;2022-08-21T12:26:33;4.30;;;1.60;;
74371;SDS011;62885;51.374;6.170;2022-08-21T12:29:05;4.72;;;1.35;;
74371;SDS011;62885;51.374;6.170;2022-08-21T12:31:46;6.75;;;1.30;;
74371;SDS011;62885;51.374;6.170;2022-08-21T12:34:30;5.53;;;1.50;;
74371;SDS011;62885;51.374;6.170;2022-08-21T12:37:04;4.78;;;1.60;;
74371;SDS011;62885;51.374;6.170;2022-08-21T12:39:43;5.82;;;1.10;;
74371;SDS011;62885;51.374;6.170;2022-08-21T12:42:15;6.38;;;1.30;;
74371;SDS011;62885;51.374;6.170;2022-08-21T12:44:48;3.53;;;1.15;;
74371;SDS011;62885;51.374;6.170;2022-08-21T12:52:41;4.90;;;1.20;;
74371;SDS011;62885;51.374;6.170;2022-08-21T12:55:13;5.38;;;1.08;;
74371;SDS011;62885;51.374;6.170;2022-08-21T12:57:41;4.35;;;1.17;;
74371;SDS011;62885;51.374;6.170;2022-08-21T13:00:08;4.57;;;1.05;;
74371;SDS011;62885;51.374;6.170;2022-08-21T13:02:38;3.20;;;1.10;;
74371;SDS011;62885;51.374;6.170;2022-08-21T13:05:12;3.40;;;1.13;;
74371;SDS011;62885;51.374;6.170;2022-08-21T13:07:43;5.55;;;1.42;;
74371;SDS011;62885;51.374;6.170;2022-08-21T13:10:19;4.10;;;1.10;;
74371;SDS011;62885;51.374;6.170;2022-08-21T13:12:45;4.22;;;1.05;;
74371;SDS011;62885;51.374;6.170;2022-08-21T13:15:12;3.15;;;1.10;;
74371;SDS011;62885;51.374;6.170;2022-08-21T13:17:39;3.95;;;1.05;;
74371;SDS011;62885;51.374;6.170;2022-08-21T13:22:48;5.13;;;1.20;;
74371;SDS011;62885;51.374;6.170;2022-08-21T13:25:15;5.72;;;2.42;;
74371;SDS011;62885;51.374;6.170;2022-08-21T13:27:43;3.85;;;1.23;;
74371;SDS011;62885;51.374;6.170;2022-08-21T13:30:18;5.53;;;0.90;;
74371;SDS011;62885;51.374;6.170;2022-08-21T13:32:47;4.90;;;1.55;;
74371;SDS011;62885;51.374;6.170;2022-08-21T13:35:19;3.97;;;1.15;;
74371;SDS011;62885;51.374;6.170;2022-08-21T13:37:48;7.53;;;1.23;;
74371;SDS011;62885;51.374;6.170;2022-08-21T13:40:30;5.15;;;1.25;;
74371;SDS011;62885;51.374;6.170;2022-08-21T13:42:57;8.18;;;1.67;;
74371;SDS011;62885;51.374;6.170;2022-08-21T13:45:26;5.13;;;1.02;;
74371;SDS011;62885;51.374;6.170;2022-08-21T13:47:57;4.15;;;1.08;;
74371;SDS011;62885;51.374;6.170;2022-08-21T13:50:25;5.72;;;1.40;;
74371;SDS011;62885;51.374;6.170;2022-08-21T13:52:58;3.60;;;1.20;;
74371;SDS011;62885;51.374;6.170;2022-08-21T13:55:34;4.28;;;1.30;;
74371;SDS011;62885;51.374;6.170;2022-08-21T13:58:03;4.97;;;1.60;;
74371;SDS011;62885;51.374;6.170;2022-08-21T14:00:30;7.15;;;1.60;;
74371;SDS011;62885;51.374;6.170;2022-08-21T14:03:04;9.45;;;1.50;;
74371;SDS011;62885;51.374;6.170;2022-08-21T14:05:35;4.75;;;1.20;;
74371;SDS011;62885;51.374;6.170;2022-08-21T14:08:05;5.82;;;1.08;;
74371;SDS011;62885;51.374;6.170;2022-08-21T14:10:36;4.57;;;1.25;;
74371;SDS011;62885;51.374;6.170;2022-08-21T14:13:20;6.22;;;1.20;;
74371;SDS011;62885;51.374;6.170;2022-08-21T14:15:56;4.32;;;1.40;;
74371;SDS011;62885;51.374;6.170;2022-08-21T14:20:50;8.52;;;1.55;;
74371;SDS011;62885;51.374;6.170;2022-08-21T14:23:25;5.40;;;1.20;;
74371;SDS011;62885;51.374;6.170;2022-08-21T14:25:51;3.55;;;1.42;;
74371;SDS011;62885;51.374;6.170;2022-08-21T14:33:27;4.18;;;1.58;;
74371;SDS011;62885;51.374;6.170;2022-08-21T14:35:55;6.60;;;1.83;;
74371;SDS011;62885;51.374;6.170;2022-08-21T14:38:22;3.78;;;1.48;;
74371;SDS011;62885;51.374;6.170;2022-08-21T14:40:50;5.78;;;1.30;;
74371;SDS011;62885;51.374;6.170;2022-08-21T14:43:18;2.80;;;1.17;;
74371;SDS011;62885;51.374;6.170;2022-08-21T14:45:44;4.40;;;1.50;;
74371;SDS011;62885;51.374;6.170;2022-08-21T14:48:10;3.15;;;1.02;;
74371;SDS011;62885;51.374;6.170;2022-08-21T14:50:36;3.75;;;1.08;;
74371;SDS011;62885;51.374;6.170;2022-08-21T14:53:01;4.00;;;1.10;;
74371;SDS011;62885;51.374;6.170;2022-08-21T14:55:28;4.45;;;0.90;;
74371;SDS011;62885;51.374;6.170;2022-08-21T14:57:54;3.28;;;0.95;;
74371;SDS011;62885;51.374;6.170;2022-08-21T15:00:22;3.58;;;1.23;;
74371;SDS011;62885;51.374;6.170;2022-08-21T15:02:50;4.90;;;1.35;;
74371;SDS011;62885;51.374;6.170;2022-08-21T15:05:17;7.35;;;1.10;;
74371;SDS011;62885;51.374;6.170;2022-08-21T15:07:42;4.32;;;1.15;;
74371;SDS011;62885;51.374;6.170;2022-08-21T15:10:12;9.55;;;3.20;;
74371;SDS011;62885;51.374;6.170;2022-08-21T15:12:37;7.78;;;2.88;;
74371;SDS011;62885;51.374;6.170;2022-08-21T15:15:04;7.60;;;2.13;;
74371;SDS011;62885;51.374;6.170;2022-08-21T15:17:30;4.32;;;1.27;;
74371;SDS011;62885;51.374;6.170;2022-08-21T15:19:56;5.07;;;1.13;;
74371;SDS011;62885;51.374;6.170;2022-08-21T15:22:21;4.20;;;1.30;;
74371;SDS011;62885;51.374;6.170;2022-08-21T15:24:46;5.65;;;1.63;;
74371;SDS011;62885;51.374;6.170;2022-08-21T15:27:12;4.70;;;1.20;;
74371;SDS011;62885;51.374;6.170;2022-08-21T15:29:41;4.38;;;1.30;;
74371;SDS011;62885;51.374;6.170;2022-08-21T15:32:20;3.42;;;0.98;;
74371;SDS011;62885;51.374;6.170;2022-08-21T15:34:49;5.20;;;1.30;;
74371;SDS011;62885;51.374;6.170;2022-08-21T15:37:16;4.55;;;1.40;;
74371;SDS011;62885;51.374;6.170;2022-08-21T15:39:41;5.20;;;1.33;;
74371;SDS011;62885;51.374;6.170;2022-08-21T15:42:07;5.10;;;1.50;;
74371;SDS011;62885;51.374;6.170;2022-08-21T15:44:33;4.53;;;1.63;;
74371;SDS011;62885;51.374;6.170;2022-08-21T15:46:58;6.05;;;1.40;;
74371;SDS011;62885;51.374;6.170;2022-08-21T15:49:24;6.65;;;1.42;;
74371;SDS011;62885;51.374;6.170;2022-08-21T15:51:50;8.27;;;1.77;;
74371;SDS011;62885;51.374;6.170;2022-08-21T15:54:15;4.88;;;1.67;;
74371;SDS011;62885;51.374;6.170;2022-08-21T15:56:43;8.20;;;2.13;;
74371;SDS011;62885;51.374;6.170;2022-08-21T15:59:13;7.75;;;2.10;;
74371;SDS011;62885;51.374;6.170;2022-08-21T16:01:42;5.78;;;1.90;;
74371;SDS011;62885;51.374;6.170;2022-08-21T16:04:07;6.10;;;2.55;;
74371;SDS011;62885;51.374;6.170;2022-08-21T16:06:34;6.45;;;2.65;;
74371;SDS011;62885;51.374;6.170;2022-08-21T16:08:59;7.55;;;2.30;;
74371;SDS011;62885;51.374;6.170;2022-08-21T16:11:25;4.10;;;2.22;;
74371;SDS011;62885;51.374;6.170;2022-08-21T16:13:51;6.78;;;2.72;;
74371;SDS011;62885;51.374;6.170;2022-08-21T16:16:18;5.68;;;2.55;;
74371;SDS011;62885;51.374;6.170;2022-08-21T16:18:45;6.47;;;2.22;;
74371;SDS011;62885;51.374;6.170;2022-08-21T16:21:11;7.30;;;2.58;;
74371;SDS011;62885;51.374;6.170;2022-08-21T16:23:37;5.55;;;2.40;;
74371;SDS011;62885;51.374;6.170;2022-08-21T16:26:04;5.32;;;2.45;;
74371;SDS011;62885;51.374;6.170;2022-08-21T16:28:33;4.68;;;2.63;;
74371;SDS011;62885;51.374;6.170;2022-08-21T16:31:01;7.07;;;2.90;;
74371;SDS011;62885;51.374;6.170;2022-08-21T16:33:32;7.35;;;2.80;;
74371;SDS011;62885;51.374;6.170;2022-08-21T16:35:57;7.93;;;3.00;;
74371;SDS011;62885;51.374;6.170;2022-08-21T16:38:24;5.05;;;2.85;;
74371;SDS011;62885;51.374;6.170;2022-08-21T16:40:50;7.43;;;2.92;;